Time;durP1;ratioP1;P1;durP2;ratioP2;P2;SDS_P1;SDS_P2;PMS_P1;PMS_P2;Temp;Humidity;BMP_temperature;BMP_pressure;BME280_temperature;BME280_humidity;BME280_pressure;Samples;Min_cycle;Max_cycle;Signal;HPM_P1;HPM_P2
2021/09/17 00:00:00;;;;;;;0.90;0.90;;;;;;;16.70;69.13;100429.97;5002669;28;20030;-74
2021/09/17 00:02:25;;;;;;;3.47;2.60;;;;;;;16.69;69.61;100425.56;5010284;28;20112;-75
2021/09/17 00:04:51;;;;;;;2.20;2.10;;;;;;;16.74;69.87;100437.31;4996860;28;20026;-76
2021/09/17 00:07:17;;;;;;;1.38;1.27;;;;;;;16.78;69.41;100434.78;5021666;28;20022;-75
2021/09/17 00:09:43;;;;;;;1.65;1.35;;;;;;;16.82;69.61;100429.44;5010813;28;20033;-75
2021/09/17 00:12:09;;;;;;;1.30;1.17;;;;;;;16.91;69.40;100435.94;5012383;28;20022;-74
2021/09/17 00:14:34;;;;;;;1.48;1.38;;;;;;;16.93;69.61;100434.47;5016283;28;20054;-75
2021/09/17 00:17:01;;;;;;;4.05;1.10;;;;;;;17.00;69.61;100445.13;5020763;28;20092;-76
2021/09/17 00:19:27;;;;;;;0.63;0.63;;;;;;;17.04;69.12;100434.25;5014156;28;20049;-74
2021/09/17 00:21:52;;;;;;;1.30;1.20;;;;;;;17.10;69.47;100433.84;5019721;28;20098;-73
2021/09/17 00:24:18;;;;;;;0.80;0.77;;;;;;;17.14;69.21;100430.47;5013050;28;20112;-76
2021/09/17 00:26:43;;;;;;;0.85;0.85;;;;;;;17.17;68.99;100433.44;4999438;28;20026;-73
2021/09/17 00:29:09;;;;;;;0.60;0.60;;;;;;;17.16;68.89;100423.50;5018588;28;20029;-73
2021/09/17 00:31:35;;;;;;;0.98;0.98;;;;;;;17.20;68.88;100421.75;5025159;28;20041;-74
2021/09/17 00:34:05;;;;;;;1.23;0.73;;;;;;;17.15;69.03;100424.63;5006233;28;20033;-75
2021/09/17 00:36:33;;;;;;;1.10;0.65;;;;;;;17.20;68.92;100435.56;5004358;28;20030;-77
2021/09/17 00:38:59;;;;;;;0.70;0.70;;;;;;;17.20;68.88;100430.06;5004045;28;20063;-75
2021/09/17 00:41:24;;;;;;;1.90;1.80;;;;;;;17.14;69.35;100422.97;5020193;28;20053;-75
2021/09/17 00:43:53;;;;;;;5.53;2.17;;;;;;;17.12;69.61;100419.72;5006110;28;20030;-77
2021/09/17 00:46:18;;;;;;;1.58;1.48;;;;;;;17.10;69.34;100410.94;5016365;28;20073;-77
2021/09/17 00:48:44;;;;;;;2.05;1.95;;;;;;;17.12;69.38;100419.72;5005606;28;20030;-76
2021/09/17 00:51:10;;;;;;;1.95;1.85;;;;;;;17.12;69.67;100418.91;4999604;28;20376;-76
2021/09/17 00:53:36;;;;;;;1.42;1.35;;;;;;;17.13;69.60;100415.84;5001887;28;20037;-75
2021/09/17 00:56:04;;;;;;;1.20;1.20;;;;;;;17.10;69.72;100416.47;5004833;28;20029;-77
2021/09/17 00:58:39;;;;;;;2.30;2.20;;;;;;;17.10;70.11;100417.28;5011911;28;20049;-78
2021/09/17 01:01:05;;;;;;;3.75;3.45;;;;;;;16.99;70.14;100398.47;5011497;28;20037;-78
2021/09/17 01:03:31;;;;;;;4.25;3.53;;;;;;;16.97;70.23;100401.56;5007303;28;20137;-78
2021/09/17 01:06:02;;;;;;;2.78;2.58;;;;;;;16.92;70.54;100394.19;4993619;28;21368;-75
2021/09/17 01:08:29;;;;;;;3.03;2.30;;;;;;;16.87;70.63;100402.56;5021763;28;20085;-75
2021/09/17 01:10:55;;;;;;;2.08;1.85;;;;;;;16.84;70.80;100392.13;4984923;28;20025;-76
2021/09/17 01:13:23;;;;;;;2.40;2.30;;;;;;;16.82;71.16;100399.06;5005188;28;20079;-75
2021/09/17 01:15:49;;;;;;;2.97;2.78;;;;;;;16.77;71.39;100388.97;4967898;28;20046;-75
2021/09/17 01:18:15;;;;;;;4.25;3.45;;;;;;;16.68;71.56;100377.00;5000420;28;20038;-74
2021/09/17 01:20:41;;;;;;;6.78;5.88;;;;;;;16.64;71.59;100376.78;5001660;28;20030;-76
2021/09/17 01:23:09;;;;;;;4.40;4.10;;;;;;;16.61;71.92;100371.09;5003562;28;20025;-75
2021/09/17 01:25:34;;;;;;;4.10;3.55;;;;;;;16.55;72.11;100367.63;4984705;28;20522;-75
2021/09/17 01:28:00;;;;;;;2.83;2.63;;;;;;;16.53;72.33;100369.88;5014923;28;20042;-75
2021/09/17 01:30:25;;;;;;;4.53;3.13;;;;;;;16.52;72.41;100369.03;5004035;28;20022;-75
2021/09/17 01:32:52;;;;;;;2.72;2.60;;;;;;;16.49;72.56;100369.66;5000504;28;20049;-74
2021/09/17 01:35:22;;;;;;;5.68;2.70;;;;;;;16.47;72.55;100360.88;5019888;28;20084;-75
2021/09/17 01:37:48;;;;;;;3.45;2.70;;;;;;;16.46;72.57;100363.94;5018770;28;20018;-75
2021/09/17 01:40:20;;;;;;;2.53;2.38;;;;;;;16.52;72.77;100368.22;5022651;28;20101;-74
2021/09/17 01:42:48;;;;;;;3.13;2.88;;;;;;;16.46;72.90;100359.22;5020626;28;20025;-75
2021/09/17 01:45:14;;;;;;;2.45;2.28;;;;;;;16.53;72.65;100365.16;5003715;28;20014;-75
2021/09/17 01:47:39;;;;;;;3.45;2.58;;;;;;;16.50;72.87;100349.22;5019662;28;20455;-75
2021/09/17 01:50:07;;;;;;;3.53;3.13;;;;;;;16.52;73.27;100354.44;5020549;28;20030;-73
2021/09/17 01:52:32;;;;;;;3.10;2.90;;;;;;;16.48;73.18;100356.97;5003183;28;20022;-74
2021/09/17 01:54:58;;;;;;;4.82;3.42;;;;;;;16.44;73.82;100357.91;5021359;28;20096;-75
2021/09/17 01:57:33;;;;;;;4.45;3.60;;;;;;;16.33;74.08;100354.53;5003188;28;20034;-73
2021/09/17 01:59:58;;;;;;;3.03;2.72;;;;;;;16.34;74.11;100353.41;5008169;28;20030;-73
2021/09/17 02:02:24;;;;;;;3.50;3.20;;;;;;;16.31;74.27;100349.31;5008876;28;20092;-73
2021/09/17 02:04:50;;;;;;;2.22;2.13;;;;;;;16.33;73.99;100346.25;4994327;28;20471;-73
2021/09/17 02:07:16;;;;;;;2.55;2.35;;;;;;;16.28;73.95;100335.31;4992669;28;20030;-76
2021/09/17 02:09:44;;;;;;;3.45;3.15;;;;;;;16.28;74.24;100338.91;4998554;28;20157;-76
2021/09/17 02:12:10;;;;;;;3.42;2.88;;;;;;;16.21;74.33;100331.03;5001117;28;20097;-75
2021/09/17 02:14:38;;;;;;;3.00;2.70;;;;;;;16.21;74.10;100331.03;5002025;28;20539;-76
2021/09/17 02:17:04;;;;;;;2.38;1.80;;;;;;;16.25;73.96;100330.41;4977359;28;20053;-75
2021/09/17 02:19:30;;;;;;;1.80;1.70;;;;;;;16.29;73.61;100331.44;5020818;28;20026;-75
2021/09/17 02:21:55;;;;;;;2.17;1.65;;;;;;;16.40;73.89;100343.91;5023145;28;20034;-76
2021/09/17 02:24:21;;;;;;;3.10;2.88;;;;;;;16.35;73.86;100330.19;5020636;28;20034;-75
2021/09/17 02:26:46;;;;;;;1.58;1.48;;;;;;;16.42;73.64;100336.13;5019239;28;20096;-75
2021/09/17 02:29:17;;;;;;;1.17;1.17;;;;;;;16.44;73.67;100322.03;5010483;28;20026;-74
2021/09/17 02:31:43;;;;;;;0.98;0.98;;;;;;;16.48;73.38;100323.84;4990455;28;20026;-75
2021/09/17 02:34:10;;;;;;;0.98;0.98;;;;;;;16.54;73.50;100317.13;5021033;28;20084;-74
2021/09/17 02:36:37;;;;;;;1.90;1.80;;;;;;;16.58;72.95;100323.63;5026183;28;20044;-74
2021/09/17 02:39:13;;;;;;;2.25;2.15;;;;;;;16.63;72.95;100313.63;5006523;28;20673;-80
2021/09/17 02:41:47;;;;;;;2.83;1.60;;;;;;;16.62;72.79;100311.97;5025001;28;20030;-80
2021/09/17 02:44:21;;;;;;;2.22;2.13;;;;;;;16.57;72.74;100299.94;5010334;28;20105;-79
2021/09/17 02:46:57;;;;;;;;;;;;;;;;;;;;;
2021/09/17 02:49:35;;;;;;;;;;;;;;;;;;;;;
2021/09/17 02:52:02;;;;;;;2.53;2.05;;;;;;;16.57;72.82;100288.91;5007079;28;20094;-79
2021/09/17 02:54:28;;;;;;;2.67;2.47;;;;;;;16.57;72.33;100286.13;5010117;28;20017;-79
2021/09/17 02:57:04;;;;;;;;;;;;;;;;;;;;;
2021/09/17 02:59:29;;;;;;;3.22;1.90;;;;;;;16.55;72.44;100291.13;5021948;28;20536;-80
2021/09/17 03:02:04;;;;;;;3.75;1.45;;;;;;;16.58;72.50;100290.50;5029145;28;20030;-81
2021/09/17 03:04:31;;;;;;;1.15;1.05;;;;;;;16.70;72.72;100300.19;5006396;28;20026;-79
2021/09/17 03:06:57;;;;;;;2.47;1.80;;;;;;;16.69;72.39;100293.03;5028385;28;20078;-78
2021/09/17 03:09:34;;;;;;;1.35;1.25;;;;;;;16.70;72.59;100286.41;5032039;28;20021;-80
2021/09/17 03:12:00;;;;;;;1.17;1.17;;;;;;;16.75;72.15;100298.16;5016427;28;20027;-77
2021/09/17 03:14:33;;;;;;;1.77;1.67;;;;;;;16.72;72.42;100290.50;5017211;28;20040;-79
2021/09/17 03:16:58;;;;;;;1.58;1.45;;;;;;;16.76;72.46;100296.19;4986100;28;20042;-77
2021/09/17 03:19:24;;;;;;;2.15;1.00;;;;;;;16.73;72.14;100285.78;4995654;28;20123;-77
2021/09/17 03:21:52;;;;;;;1.38;1.38;;;;;;;16.69;72.22;100273.72;4993813;28;20029;-81
2021/09/17 03:24:22;;;;;;;1.48;1.40;;;;;;;16.67;72.39;100270.47;5022832;28;20029;-81
2021/09/17 03:26:48;;;;;;;2.00;1.40;;;;;;;16.59;72.08;100258.22;4991528;28;20033;-78
2021/09/17 03:29:16;;;;;;;5.18;1.88;;;;;;;16.64;72.46;100279.38;4994341;28;20068;-79
2021/09/17 03:31:49;;;;;;;1.50;1.40;;;;;;;16.54;72.50;100261.09;5023481;28;20341;-78
2021/09/17 03:34:15;;;;;;;1.90;1.30;;;;;;;16.58;72.05;100273.94;4973312;28;20040;-78
2021/09/17 03:36:44;;;;;;;1.40;1.30;;;;;;;16.49;72.09;100250.97;5019020;28;20096;-80
2021/09/17 03:39:15;;;;;;;1.30;1.25;;;;;;;16.52;72.08;100257.81;4990924;28;20025;-80
2021/09/17 03:41:44;;;;;;;1.77;1.67;;;;;;;16.55;72.14;100263.53;4990661;28;20518;-75
2021/09/17 03:44:11;;;;;;;1.33;1.23;;;;;;;16.50;72.15;100249.03;5025733;28;20104;-76
2021/09/17 03:46:39;;;;;;;1.30;1.30;;;;;;;16.55;72.60;100258.00;4999557;28;20023;-76
2021/09/17 03:49:05;;;;;;;3.22;1.92;;;;;;;16.53;72.07;100253.94;5001822;28;20053;-78
2021/09/17 03:51:30;;;;;;;1.67;1.58;;;;;;;16.52;72.12;100253.13;5019754;28;20014;-77
2021/09/17 03:53:56;;;;;;;1.77;1.67;;;;;;;16.44;72.08;100251.09;4988242;28;20433;-77
2021/09/17 03:56:22;;;;;;;1.48;1.38;;;;;;;16.45;72.54;100252.72;5024457;28;20030;-77
2021/09/17 03:58:51;;;;;;;0.75;0.75;;;;;;;16.35;72.26;100245.50;5006257;28;20034;-77
2021/09/17 04:01:16;;;;;;;1.10;0.80;;;;;;;16.35;72.44;100241.91;4995270;28;20030;-78
2021/09/17 04:03:42;;;;;;;0.57;0.57;;;;;;;16.37;72.65;100245.19;4976700;28;20040;-79
2021/09/17 04:06:07;;;;;;;1.92;0.52;;;;;;;16.39;72.61;100237.41;5007420;28;20025;-77
2021/09/17 04:08:36;;;;;;;5.05;1.17;;;;;;;16.34;72.62;100246.63;4986429;28;20042;-77
2021/09/17 04:11:04;;;;;;;3.33;1.38;;;;;;;16.30;72.73;100244.78;4997738;28;20352;-78
2021/09/17 04:13:29;;;;;;;1.48;1.38;;;;;;;16.27;72.83;100250.94;4994069;28;20034;-77
2021/09/17 04:15:58;;;;;;;0.70;0.70;;;;;;;16.23;73.14;100251.53;5007722;28;20085;-76
2021/09/17 04:18:23;;;;;;;1.23;1.13;;;;;;;16.29;72.78;100243.16;5000761;28;20737;-77
2021/09/17 04:20:49;;;;;;;0.60;0.60;;;;;;;16.28;72.75;100247.03;5000773;28;20041;-75
2021/09/17 04:23:15;;;;;;;3.92;1.42;;;;;;;16.24;72.73;100235.81;5022141;28;20101;-77
2021/09/17 04:25:40;;;;;;;0.63;0.60;;;;;;;16.26;72.50;100235.50;5007888;28;20111;-76
2021/09/17 04:28:07;;;;;;;1.65;0.77;;;;;;;16.29;72.76;100232.13;4986076;28;20034;-78
2021/09/17 04:30:34;;;;;;;0.70;0.70;;;;;;;16.26;73.13;100216.19;4997684;28;20034;-78
2021/09/17 04:33:00;;;;;;;0.70;0.70;;;;;;;16.32;72.34;100232.28;4974438;28;20442;-77
2021/09/17 04:35:27;;;;;;;0.70;0.70;;;;;;;16.37;72.73;100234.16;4987358;28;20038;-77
2021/09/17 04:37:59;;;;;;;0.65;0.65;;;;;;;16.37;72.43;100234.16;5017918;28;20045;-77
2021/09/17 04:40:25;;;;;;;0.45;0.40;;;;;;;16.38;72.60;100230.25;4982410;28;20174;-76
2021/09/17 04:42:52;;;;;;;0.40;0.40;;;;;;;16.38;72.41;100224.72;5003696;28;20026;-78
2021/09/17 04:45:18;;;;;;;1.85;0.98;;;;;;;16.39;72.25;100223.59;4987083;28;20026;-77
2021/09/17 04:47:43;;;;;;;0.73;0.73;;;;;;;16.34;72.38;100229.22;5013609;28;20045;-78
2021/09/17 04:50:10;;;;;;;1.17;0.77;;;;;;;16.35;72.43;100228.94;5003012;28;20032;-78
2021/09/17 04:52:36;;;;;;;0.30;0.30;;;;;;;16.37;72.22;100228.63;4972932;28;20033;-77
2021/09/17 04:55:03;;;;;;;0.50;0.50;;;;;;;16.37;72.51;100228.63;5003753;28;20108;-77
2021/09/17 04:57:29;;;;;;;0.25;0.25;;;;;;;16.38;72.13;100221.97;5000367;28;20026;-78
2021/09/17 04:59:55;;;;;;;0.30;0.30;;;;;;;16.42;72.05;100225.75;5005526;28;20021;-74
2021/09/17 05:02:21;;;;;;;0.32;0.32;;;;;;;16.36;72.34;100216.75;5006993;28;20034;-73
2021/09/17 05:04:47;;;;;;;0.47;0.47;;;;;;;16.33;72.28;100224.84;4982141;28;20030;-73
2021/09/17 05:07:13;;;;;;;0.65;0.65;;;;;;;16.33;72.33;100230.38;4999319;28;20026;-74
2021/09/17 05:09:39;;;;;;;0.65;0.65;;;;;;;16.31;72.27;100227.09;5002386;28;20121;-76
2021/09/17 05:12:05;;;;;;;0.52;0.52;;;;;;;16.25;71.98;100231.91;5003075;28;20081;-75
2021/09/17 05:14:30;;;;;;;0.65;0.65;;;;;;;16.27;72.41;100231.63;5013752;28;20050;-73
2021/09/17 05:16:56;;;;;;;1.00;0.55;;;;;;;16.26;72.14;100233.53;5011908;28;20038;-72
2021/09/17 05:19:24;;;;;;;1.38;0.80;;;;;;;16.23;72.10;100229.44;4994148;28;20033;-75
2021/09/17 05:21:56;;;;;;;0.80;0.80;;;;;;;16.18;72.02;100220.50;5012944;28;20068;-75
2021/09/17 05:24:23;;;;;;;0.70;0.60;;;;;;;16.12;71.78;100222.53;5009411;28;20033;-75
2021/09/17 05:26:49;;;;;;;1.33;1.10;;;;;;;16.03;72.21;100227.13;5005959;28;20042;-75
2021/09/17 05:29:15;;;;;;;1.60;0.85;;;;;;;15.94;72.42;100220.69;5000695;28;20132;-75
2021/09/17 05:31:43;;;;;;;0.57;0.57;;;;;;;15.86;72.30;100228.56;5015479;28;20026;-76
2021/09/17 05:34:11;;;;;;;0.50;0.50;;;;;;;15.82;72.61;100235.00;4996574;28;20042;-75
2021/09/17 05:36:36;;;;;;;0.50;0.40;;;;;;;15.75;72.44;100229.84;4986357;28;20034;-76
2021/09/17 05:39:02;;;;;;;0.60;0.60;;;;;;;15.75;72.07;100229.84;5001558;28;20782;-76
2021/09/17 05:41:35;;;;;;;0.55;0.55;;;;;;;15.71;72.83;100237.94;4998680;28;20080;-73
2021/09/17 05:44:06;;;;;;;0.45;0.40;;;;;;;15.65;72.57;100213.50;5006689;28;20026;-74
2021/09/17 05:46:32;;;;;;;0.40;0.40;;;;;;;15.75;72.71;100235.38;5005900;28;20514;-74
2021/09/17 05:48:57;;;;;;;0.65;0.65;;;;;;;15.74;72.79;100230.16;5000730;28;20116;-73
2021/09/17 05:51:23;;;;;;;0.55;0.40;;;;;;;15.64;72.82;100217.41;5004088;28;20030;-73
2021/09/17 05:53:48;;;;;;;1.00;1.00;;;;;;;15.74;72.56;100232.91;4984164;28;20037;-73
2021/09/17 05:56:14;;;;;;;0.40;0.40;;;;;;;15.71;72.69;100228.81;5029139;28;20034;-78
2021/09/17 05:58:40;;;;;;;0.40;0.40;;;;;;;15.66;72.92;100226.19;4972885;28;20029;-76
2021/09/17 06:01:08;;;;;;;0.47;0.47;;;;;;;15.66;72.80;100220.66;5003422;28;20022;-76
2021/09/17 06:03:33;;;;;;;0.43;0.43;;;;;;;15.56;72.88;100218.91;5016680;28;20038;-76
2021/09/17 06:05:59;;;;;;;0.60;0.50;;;;;;;15.41;72.63;100202.69;5002985;28;20045;-75
2021/09/17 06:08:30;;;;;;;0.43;0.43;;;;;;;15.38;72.85;100219.81;4994854;28;20357;-75
2021/09/17 06:10:55;;;;;;;0.60;0.60;;;;;;;15.35;72.72;100212.97;5015843;28;20026;-74
2021/09/17 06:13:21;;;;;;;0.35;0.35;;;;;;;15.36;72.78;100225.63;4998313;28;20029;-72
2021/09/17 06:15:46;;;;;;;0.60;0.60;;;;;;;15.36;72.63;100234.72;4995110;28;20049;-73
2021/09/17 06:18:12;;;;;;;1.30;0.70;;;;;;;15.33;72.74;100224.31;4997365;28;20034;-70
2021/09/17 06:20:38;;;;;;;0.45;0.40;;;;;;;15.31;72.84;100225.72;4975139;28;20026;-72
2021/09/17 06:23:03;;;;;;;0.40;0.35;;;;;;;15.28;72.98;100226.31;5008281;28;20041;-72
2021/09/17 06:25:29;;;;;;;0.30;0.30;;;;;;;15.30;72.50;100224.91;4989325;28;20113;-76
2021/09/17 06:27:54;;;;;;;0.20;0.20;;;;;;;15.30;72.67;100224.06;5002001;28;20380;-76
2021/09/17 06:30:20;;;;;;;0.52;0.38;;;;;;;15.33;72.67;100228.97;5005290;28;20057;-77
2021/09/17 06:32:46;;;;;;;0.20;0.20;;;;;;;15.34;72.52;100228.66;5006174;28;20033;-75
2021/09/17 06:35:13;;;;;;;0.45;0.22;;;;;;;15.38;73.05;100220.63;5019663;28;20030;-76
2021/09/17 06:37:54;;;;;;;0.30;0.30;;;;;;;15.41;72.49;100209.00;5006892;28;20317;-76
2021/09/17 06:40:24;;;;;;;0.20;0.20;;;;;;;15.48;72.75;100220.44;5000162;28;20097;-75
2021/09/17 06:42:50;;;;;;;0.20;0.20;;;;;;;15.54;72.63;100215.66;5004196;28;20025;-75
2021/09/17 06:45:16;;;;;;;0.10;0.10;;;;;;;15.64;72.38;100217.41;5018261;28;20436;-76
2021/09/17 06:47:46;;;;;;;0.20;0.15;;;;;;;15.73;72.33;100226.59;5017253;28;20021;-73
2021/09/17 06:50:15;;;;;;;0.30;0.30;;;;;;;15.80;72.26;100229.78;5003214;28;20034;-76
2021/09/17 06:52:47;;;;;;;1.48;1.30;;;;;;;15.82;72.10;100224.78;5009929;28;20022;-74
2021/09/17 06:55:39;;;;;;;0.55;0.55;;;;;;;15.82;72.37;100226.72;5006797;28;20057;-75
2021/09/17 06:58:05;;;;;;;1.02;0.88;;;;;;;15.90;72.40;100227.94;5008579;28;20046;-74
2021/09/17 07:00:35;;;;;;;1.52;0.93;;;;;;;15.95;72.62;100222.34;5015545;28;20029;-73
2021/09/17 07:03:00;;;;;;;0.60;0.60;;;;;;;15.98;72.80;100222.53;5012931;28;20117;-76
2021/09/17 07:05:27;;;;;;;1.33;1.33;;;;;;;16.06;72.40;100226.50;5001681;28;20042;-73
2021/09/17 07:08:05;;;;;;;1.02;1.02;;;;;;;16.11;72.51;100220.09;5016086;28;20034;-73
2021/09/17 07:10:31;;;;;;;0.93;0.93;;;;;;;16.14;72.47;100217.53;5017728;28;20062;-76
2021/09/17 07:12:57;;;;;;;0.65;0.65;;;;;;;16.18;72.23;100221.31;5015813;28;20050;-76
2021/09/17 07:15:23;;;;;;;3.55;0.80;;;;;;;16.25;72.21;100220.06;4991184;28;20042;-75
2021/09/17 07:17:49;;;;;;;2.22;1.55;;;;;;;16.33;71.92;100219.34;4998670;28;20129;-76
2021/09/17 07:20:14;;;;;;;3.92;1.40;;;;;;;16.33;72.01;100222.91;4996256;28;20046;-74
2021/09/17 07:22:40;;;;;;;1.27;1.20;;;;;;;16.34;71.89;100207.16;4994121;28;20081;-76
2021/09/17 07:25:07;;;;;;;1.30;1.30;;;;;;;16.26;71.69;100205.16;4997929;28;20034;-73
2021/09/17 07:27:32;;;;;;;1.00;1.00;;;;;;;16.27;71.93;100215.06;4995942;28;20082;-73
2021/09/17 07:29:58;;;;;;;0.93;0.93;;;;;;;16.23;71.64;100212.91;4968954;28;20531;-74
2021/09/17 07:32:27;;;;;;;3.10;0.73;;;;;;;16.22;72.07;100205.75;4994869;28;20064;-75
2021/09/17 07:34:54;;;;;;;0.90;0.68;;;;;;;16.30;72.06;100206.16;5001621;28;20034;-76
2021/09/17 07:37:21;;;;;;;1.50;0.80;;;;;;;16.41;71.78;100202.03;4995777;28;20041;-73
2021/09/17 07:39:46;;;;;;;0.47;0.47;;;;;;;16.65;71.62;100209.22;4993987;28;20142;-73
2021/09/17 07:42:12;;;;;;;0.50;0.50;;;;;;;16.87;71.33;100208.44;4993801;28;20054;-71
2021/09/17 07:44:37;;;;;;;0.50;0.50;;;;;;;17.11;71.21;100210.88;4994909;28;20038;-70
2021/09/17 07:47:07;;;;;;;0.40;0.40;;;;;;;17.39;70.62;100207.94;4971049;28;20030;-71
2021/09/17 07:49:33;;;;;;;0.40;0.40;;;;;;;17.61;70.23;100216.19;4992912;28;20038;-73
2021/09/17 07:51:59;;;;;;;5.35;0.47;;;;;;;17.82;69.76;100220.34;4996049;28;20477;-72
2021/09/17 07:54:25;;;;;;;1.15;0.50;;;;;;;18.00;69.15;100218.47;4992837;28;20038;-71
2021/09/17 07:56:51;;;;;;;1.13;0.80;;;;;;;18.02;68.81;100224.50;4993076;28;20480;-72
2021/09/17 07:59:20;;;;;;;1.63;1.20;;;;;;;18.10;68.78;100226.47;4994704;28;20045;-75
2021/09/17 08:01:45;;;;;;;0.60;0.60;;;;;;;18.18;68.35;100225.69;4991223;28;20041;-73
2021/09/17 08:04:11;;;;;;;0.80;0.80;;;;;;;18.40;67.87;100229.47;4995536;28;20026;-73
2021/09/17 08:06:37;;;;;;;1.70;0.90;;;;;;;18.56;68.00;100227.88;4975776;28;20031;-73
2021/09/17 08:09:02;;;;;;;1.33;1.23;;;;;;;18.62;67.55;100223.78;4989691;28;20030;-73
2021/09/17 08:11:28;;;;;;;1.80;1.48;;;;;;;18.64;66.73;100226.25;4980324;28;20030;-74
2021/09/17 08:13:54;;;;;;;1.27;1.17;;;;;;;18.63;66.92;100232.91;4993923;28;20037;-73
2021/09/17 08:16:24;;;;;;;1.27;1.17;;;;;;;18.59;66.20;100232.75;4994497;28;20077;-73
2021/09/17 08:18:49;;;;;;;1.13;1.13;;;;;;;18.60;66.31;100234.41;4988376;28;20042;-73
2021/09/17 08:21:16;;;;;;;1.05;0.95;;;;;;;18.63;66.38;100232.91;4988754;28;20416;-74
2021/09/17 08:23:41;;;;;;;0.63;0.63;;;;;;;18.64;66.77;100234.53;4985209;28;20453;-74
2021/09/17 08:26:07;;;;;;;1.48;1.30;;;;;;;18.67;65.77;100234.72;4994013;28;20037;-73
2021/09/17 08:28:34;;;;;;;1.63;1.00;;;;;;;18.72;66.08;100236.50;4998533;28;20018;-74
2021/09/17 08:31:01;;;;;;;1.67;0.77;;;;;;;18.86;66.06;100241.91;4990149;28;20034;-71
2021/09/17 08:33:27;;;;;;;1.00;0.93;;;;;;;18.94;65.86;100237.50;4991026;28;20023;-75
2021/09/17 08:35:53;;;;;;;1.65;0.77;;;;;;;19.10;65.13;100240.56;4985964;28;20034;-72
2021/09/17 08:38:19;;;;;;;2.63;0.93;;;;;;;19.24;65.22;100235.66;4987814;28;20029;-74
2021/09/17 08:40:45;;;;;;;2.20;1.58;;;;;;;19.54;65.10;100238.53;4989657;28;20180;-73
2021/09/17 08:43:10;;;;;;;1.67;0.68;;;;;;;19.82;64.24;100247.25;4984936;28;20148;-74
2021/09/17 08:45:36;;;;;;;1.10;0.65;;;;;;;19.88;63.39;100236.78;4989578;28;20030;-73
2021/09/17 08:48:02;;;;;;;1.48;0.50;;;;;;;20.10;63.14;100248.78;4993905;28;20037;-73
2021/09/17 08:50:37;;;;;;;1.65;0.60;;;;;;;20.19;63.10;100246.75;4996616;28;20061;-74
2021/09/17 08:53:02;;;;;;;2.25;0.60;;;;;;;20.14;61.94;100252.50;4986097;28;20030;-73
2021/09/17 08:55:30;;;;;;;0.75;0.60;;;;;;;20.20;61.60;100253.94;4983859;28;20080;-74
2021/09/17 08:57:56;;;;;;;0.90;0.40;;;;;;;20.21;61.00;100250.03;4961972;28;20098;-74
2021/09/17 09:00:29;;;;;;;0.63;0.30;;;;;;;20.19;60.98;100246.75;4996149;28;20116;-74
2021/09/17 09:02:56;;;;;;;0.20;0.13;;;;;;;20.15;60.65;100240.25;4984145;28;20105;-73
2021/09/17 09:05:29;;;;;;;0.28;0.20;;;;;;;20.23;61.59;100247.72;4988764;28;20049;-71
2021/09/17 09:07:55;;;;;;;0.38;0.25;;;;;;;20.32;60.89;100234.59;4992505;28;20096;-73
2021/09/17 09:10:21;;;;;;;1.23;0.38;;;;;;;20.47;60.27;100240.69;4997610;28;20515;-72
2021/09/17 09:12:53;;;;;;;0.20;0.20;;;;;;;20.60;59.77;100244.38;4987967;28;20062;-72
2021/09/17 09:15:26;;;;;;;0.63;0.35;;;;;;;20.60;58.62;100244.38;4996368;28;20042;-73
2021/09/17 09:18:12;;;;;;;1.02;0.20;;;;;;;20.71;58.87;100246.44;5011207;28;20057;-75
2021/09/17 09:20:47;;;;;;;1.77;0.30;;;;;;;21.15;58.87;100234.13;4986772;28;20037;-72
2021/09/17 09:23:24;;;;;;;0.17;0.17;;;;;;;21.55;58.09;100239.13;4992787;28;20481;-74
2021/09/17 09:26:02;;;;;;;1.38;0.40;;;;;;;21.93;56.44;100224.06;5008616;28;20046;-72
2021/09/17 09:28:35;;;;;;;1.83;0.40;;;;;;;22.27;55.35;100224.75;5010558;28;20110;-72
2021/09/17 09:31:37;;;;;;;0.13;0.10;;;;;;;22.75;54.90;100237.00;5007343;28;20136;-72
2021/09/17 09:34:05;;;;;;;0.15;0.10;;;;;;;22.84;52.96;100237.66;4977225;28;20094;-72
2021/09/17 09:36:35;;;;;;;1.48;0.20;;;;;;;22.88;52.08;100234.97;4993929;28;20021;-74
2021/09/17 09:39:03;;;;;;;0.73;0.20;;;;;;;22.72;51.02;100229.34;4995226;28;20022;-73
2021/09/17 09:41:32;;;;;;;1.23;0.40;;;;;;;22.44;51.57;100226.50;5001950;28;20034;-73
2021/09/17 09:44:03;;;;;;;0.20;0.20;;;;;;;22.37;51.76;100232.66;5009934;28;20037;-74
2021/09/17 09:46:32;;;;;;;0.50;0.20;;;;;;;22.23;52.04;100223.84;5012470;28;20053;-72
2021/09/17 09:49:03;;;;;;;0.40;0.10;;;;;;;22.38;53.07;100220.34;5011946;28;20040;-73
2021/09/17 09:51:34;;;;;;;2.35;0.95;;;;;;;22.60;52.17;100230.16;4993527;28;20109;-71
2021/09/17 09:54:02;;;;;;;0.30;0.20;;;;;;;22.69;52.11;100221.66;5002174;28;20536;-74
2021/09/17 09:56:28;;;;;;;0.28;0.13;;;;;;;22.87;51.60;100224.97;5005486;28;20088;-73
2021/09/17 09:58:54;;;;;;;0.50;0.17;;;;;;;22.98;51.01;100225.28;4977440;28;20029;-76
2021/09/17 10:01:21;;;;;;;0.35;0.20;;;;;;;23.04;49.94;100223.84;4984662;28;20108;-72
2021/09/17 10:03:48;;;;;;;0.30;0.22;;;;;;;22.90;49.99;100234.63;5006909;28;20061;-72
2021/09/17 10:06:14;;;;;;;3.30;0.20;;;;;;;22.90;49.52;100229.03;5004854;28;20061;-73
2021/09/17 10:08:45;;;;;;;0.85;0.40;;;;;;;23.07;49.94;100233.47;4989526;28;20068;-72
2021/09/17 10:11:11;;;;;;;1.13;0.30;;;;;;;23.13;50.27;100232.09;4996969;28;20476;-76
2021/09/17 10:13:40;;;;;;;5.60;0.40;;;;;;;23.21;50.10;100233.91;4994616;28;20038;-74
2021/09/17 10:16:05;;;;;;;0.25;0.20;;;;;;;23.18;49.31;100218.69;4985420;28;20046;-75
2021/09/17 10:18:31;;;;;;;1.17;0.30;;;;;;;23.40;49.15;100229.63;4992561;28;20473;-73
2021/09/17 10:20:59;;;;;;;1.08;0.57;;;;;;;23.40;48.55;100227.66;4996008;28;20026;-72
2021/09/17 10:23:26;;;;;;;1.17;0.40;;;;;;;23.51;48.75;100230.72;4994672;28;20060;-72
2021/09/17 10:26:12;;;;;;;0.73;0.30;;;;;;;23.56;48.09;100238.81;5004747;28;20700;-73
2021/09/17 10:29:07;;;;;;;0.30;0.20;;;;;;;23.59;46.75;100246.47;5009170;28;20014;-71
2021/09/17 10:31:44;;;;;;;0.22;0.22;;;;;;;23.34;47.43;100227.09;4977020;28;20070;-72
2021/09/17 10:34:31;;;;;;;1.75;0.30;;;;;;;23.27;47.45;100226.09;4992051;28;20046;-69
2021/09/17 10:36:57;;;;;;;0.50;0.50;;;;;;;23.21;48.06;100227.53;5000047;28;20379;-72
2021/09/17 10:39:22;;;;;;;0.40;0.38;;;;;;;23.19;47.72;100222.31;5008408;28;20037;-72
2021/09/17 10:42:14;;;;;;;1.98;0.35;;;;;;;23.38;47.26;100221.63;5009403;28;20022;-73
2021/09/17 10:45:01;;;;;;;0.50;0.30;;;;;;;23.86;47.83;100219.69;5009294;28;20518;-72
2021/09/17 10:47:39;;;;;;;3.00;0.28;;;;;;;24.29;47.25;100214.28;5000877;28;20478;-71
2021/09/17 10:50:09;;;;;;;0.22;0.22;;;;;;;24.47;45.58;100206.28;5012149;28;20044;-73
2021/09/17 10:52:43;;;;;;;0.90;0.30;;;;;;;24.56;45.46;100212.50;5016826;28;20033;-75
2021/09/17 10:55:29;;;;;;;0.45;0.25;;;;;;;24.97;44.99;100209.38;5005005;28;20085;-75
2021/09/17 10:58:29;;;;;;;0.25;0.22;;;;;;;25.47;43.46;100209.50;5000035;28;20372;-74
2021/09/17 11:01:06;;;;;;;1.35;0.50;;;;;;;25.76;42.28;100199.59;4994394;28;20026;-75
2021/09/17 11:03:46;;;;;;;0.47;0.30;;;;;;;26.06;41.31;100206.50;5019295;28;20034;-74
2021/09/17 11:06:18;;;;;;;0.52;0.10;;;;;;;26.15;41.79;100204.22;5021235;28;20488;-71
2021/09/17 11:08:45;;;;;;;0.80;0.40;;;;;;;26.29;41.35;100203.63;5008970;28;20021;-73
2021/09/17 11:11:25;;;;;;;0.63;0.20;;;;;;;26.60;39.84;100208.03;5019476;28;20033;-73
2021/09/17 11:13:53;;;;;;;0.25;0.13;;;;;;;26.61;39.65;100192.84;5014008;28;20056;-74
2021/09/17 11:16:20;;;;;;;0.30;0.20;;;;;;;26.44;40.02;100193.41;5002292;28;20420;-72
2021/09/17 11:19:04;;;;;;;0.50;0.38;;;;;;;26.48;40.91;100188.66;5021214;28;20103;-74
2021/09/17 11:21:40;;;;;;;0.40;0.20;;;;;;;26.39;40.53;100183.34;4994496;28;20070;-78
2021/09/17 11:24:18;;;;;;;0.40;0.30;;;;;;;26.30;40.59;100189.25;5017568;28;20029;-78
2021/09/17 11:26:47;;;;;;;0.55;0.30;;;;;;;26.47;41.10;100179.47;5015668;28;20060;-76
2021/09/17 11:29:16;;;;;;;0.43;0.20;;;;;;;26.35;40.53;100190.91;5000104;28;20159;-77
2021/09/17 11:31:51;;;;;;;0.55;0.40;;;;;;;25.91;40.27;100172.63;5021914;28;20053;-78
2021/09/17 11:34:28;;;;;;;2.13;0.13;;;;;;;25.56;40.71;100184.88;5006373;28;20056;-76